sensor_id;sensor_type;location;lat;lon;timestamp;P1;durP1;ratioP1;P2;durP2;ratioP2
1390;SDS011;690;51.454;7.194;2023-05-21T00:01:03;15.13;;;12.83;;
1390;SDS011;690;51.454;7.194;2023-05-21T00:03:30;17.73;;;13.80;;
1390;SDS011;690;51.454;7.194;2023-05-21T00:05:57;16.77;;;13.10;;
1390;SDS011;690;51.454;7.194;2023-05-21T00:08:27;16.07;;;13.03;;
1390;SDS011;690;51.454;7.194;2023-05-21T00:10:55;14.60;;;13.10;;
1390;SDS011;690;51.454;7.194;2023-05-21T00:13:21;15.73;;;13.60;;
1390;SDS011;690;51.454;7.194;2023-05-21T00:15:48;16.73;;;13.53;;
1390;SDS011;690;51.454;7.194;2023-05-21T00:18:15;15.83;;;12.33;;
1390;SDS011;690;51.454;7.194;2023-05-21T00:20:42;13.53;;;11.90;;
1390;SDS011;690;51.454;7.194;2023-05-21T00:23:09;14.30;;;12.80;;
1390;SDS011;690;51.454;7.194;2023-05-21T00:25:38;13.73;;;11.83;;
1390;SDS011;690;51.454;7.194;2023-05-21T00:28:04;14.30;;;12.70;;
1390;SDS011;690;51.454;7.194;2023-05-21T00:30:31;17.60;;;12.33;;
1390;SDS011;690;51.454;7.194;2023-05-21T00:32:58;16.20;;;12.97;;
1390;SDS011;690;51.454;7.194;2023-05-21T00:35:26;15.30;;;12.43;;
1390;SDS011;690;51.454;7.194;2023-05-21T00:37:53;14.23;;;12.47;;
1390;SDS011;690;51.454;7.194;2023-05-21T00:40:21;16.00;;;11.67;;
1390;SDS011;690;51.454;7.194;2023-05-21T00:42:49;16.40;;;12.10;;
1390;SDS011;690;51.454;7.194;2023-05-21T00:45:16;13.00;;;11.63;;
1390;SDS011;690;51.454;7.194;2023-05-21T00:47:43;17.20;;;11.53;;
1390;SDS011;690;51.454;7.194;2023-05-21T00:50:12;13.70;;;11.77;;
1390;SDS011;690;51.454;7.194;2023-05-21T00:52:40;13.97;;;12.33;;
1390;SDS011;690;51.454;7.194;2023-05-21T00:55:09;13.30;;;11.73;;
1390;SDS011;690;51.454;7.194;2023-05-21T00:57:36;13.77;;;11.90;;
1390;SDS011;690;51.454;7.194;2023-05-21T01:00:07;16.20;;;11.67;;
1390;SDS011;690;51.454;7.194;2023-05-21T01:02:36;14.07;;;12.43;;
1390;SDS011;690;51.454;7.194;2023-05-21T01:05:03;13.33;;;11.93;;
1390;SDS011;690;51.454;7.194;2023-05-21T01:07:31;12.33;;;10.60;;
1390;SDS011;690;51.454;7.194;2023-05-21T01:10:00;12.40;;;11.10;;
1390;SDS011;690;51.454;7.194;2023-05-21T01:12:28;13.80;;;11.77;;
1390;SDS011;690;51.454;7.194;2023-05-21T01:14:57;16.07;;;11.43;;
1390;SDS011;690;51.454;7.194;2023-05-21T01:17:26;12.87;;;10.90;;
1390;SDS011;690;51.454;7.194;2023-05-21T01:19:56;15.40;;;11.60;;
1390;SDS011;690;51.454;7.194;2023-05-21T01:22:23;16.50;;;12.50;;
1390;SDS011;690;51.454;7.194;2023-05-21T01:24:53;13.37;;;10.60;;
1390;SDS011;690;51.454;7.194;2023-05-21T01:27:20;13.87;;;11.27;;
1390;SDS011;690;51.454;7.194;2023-05-21T01:29:47;11.60;;;10.40;;
1390;SDS011;690;51.454;7.194;2023-05-21T01:32:15;13.03;;;10.37;;
1390;SDS011;690;51.454;7.194;2023-05-21T01:34:52;12.63;;;11.33;;
1390;SDS011;690;51.454;7.194;2023-05-21T01:37:26;12.60;;;11.17;;
1390;SDS011;690;51.454;7.194;2023-05-21T01:40:02;13.97;;;10.97;;
1390;SDS011;690;51.454;7.194;2023-05-21T01:42:47;12.57;;;10.50;;
1390;SDS011;690;51.454;7.194;2023-05-21T01:45:14;11.70;;;10.60;;
1390;SDS011;690;51.454;7.194;2023-05-21T01:47:43;11.23;;;9.93;;
1390;SDS011;690;51.454;7.194;2023-05-21T01:50:12;12.90;;;10.17;;
1390;SDS011;690;51.454;7.194;2023-05-21T01:52:47;12.10;;;10.90;;
1390;SDS011;690;51.454;7.194;2023-05-21T01:55:16;15.00;;;10.90;;
1390;SDS011;690;51.454;7.194;2023-05-21T01:57:43;11.50;;;10.33;;
1390;SDS011;690;51.454;7.194;2023-05-21T02:00:11;12.83;;;9.70;;
1390;SDS011;690;51.454;7.194;2023-05-21T02:02:39;13.13;;;10.13;;
1390;SDS011;690;51.454;7.194;2023-05-21T02:05:06;13.13;;;10.47;;
1390;SDS011;690;51.454;7.194;2023-05-21T02:07:34;10.97;;;9.80;;
1390;SDS011;690;51.454;7.194;2023-05-21T02:10:01;11.27;;;10.13;;
1390;SDS011;690;51.454;7.194;2023-05-21T02:12:29;11.33;;;10.23;;
1390;SDS011;690;51.454;7.194;2023-05-21T02:15:01;14.87;;;10.10;;
1390;SDS011;690;51.454;7.194;2023-05-21T02:17:40;10.03;;;9.07;;
1390;SDS011;690;51.454;7.194;2023-05-21T02:20:09;11.17;;;9.67;;
1390;SDS011;690;51.454;7.194;2023-05-21T02:22:36;10.67;;;9.60;;
1390;SDS011;690;51.454;7.194;2023-05-21T02:25:05;12.10;;;9.43;;
1390;SDS011;690;51.454;7.194;2023-05-21T02:27:34;13.63;;;9.63;;
1390;SDS011;690;51.454;7.194;2023-05-21T02:30:02;11.97;;;9.20;;
1390;SDS011;690;51.454;7.194;2023-05-21T02:32:31;10.03;;;9.03;;
1390;SDS011;690;51.454;7.194;2023-05-21T02:34:58;13.83;;;10.63;;
1390;SDS011;690;51.454;7.194;2023-05-21T02:37:25;10.50;;;9.37;;
1390;SDS011;690;51.454;7.194;2023-05-21T02:39:52;10.47;;;9.37;;
1390;SDS011;690;51.454;7.194;2023-05-21T02:42:20;11.63;;;9.60;;
1390;SDS011;690;51.454;7.194;2023-05-21T02:44:48;13.10;;;10.40;;
1390;SDS011;690;51.454;7.194;2023-05-21T02:47:18;10.80;;;9.67;;
1390;SDS011;690;51.454;7.194;2023-05-21T02:49:47;12.43;;;9.40;;
1390;SDS011;690;51.454;7.194;2023-05-21T02:52:15;11.00;;;9.80;;
1390;SDS011;690;51.454;7.194;2023-05-21T02:54:43;10.70;;;9.60;;
1390;SDS011;690;51.454;7.194;2023-05-21T02:57:10;10.40;;;9.30;;
1390;SDS011;690;51.454;7.194;2023-05-21T02:59:37;14.93;;;10.87;;
1390;SDS011;690;51.454;7.194;2023-05-21T03:02:06;10.17;;;9.17;;
1390;SDS011;690;51.454;7.194;2023-05-21T03:04:32;11.30;;;10.10;;
1390;SDS011;690;51.454;7.194;2023-05-21T03:07:03;10.90;;;9.80;;
1390;SDS011;690;51.454;7.194;2023-05-21T03:09:30;10.30;;;9.20;;
1390;SDS011;690;51.454;7.194;2023-05-21T03:11:57;11.80;;;10.70;;
1390;SDS011;690;51.454;7.194;2023-05-21T03:14:24;11.00;;;9.20;;
1390;SDS011;690;51.454;7.194;2023-05-21T03:16:53;12.30;;;10.53;;
1390;SDS011;690;51.454;7.194;2023-05-21T03:19:21;13.30;;;9.47;;
1390;SDS011;690;51.454;7.194;2023-05-21T03:21:48;10.77;;;9.67;;
1390;SDS011;690;51.454;7.194;2023-05-21T03:24:15;11.13;;;10.07;;
1390;SDS011;690;51.454;7.194;2023-05-21T03:26:42;11.57;;;10.37;;
1390;SDS011;690;51.454;7.194;2023-05-21T03:29:09;12.87;;;9.80;;
1390;SDS011;690;51.454;7.194;2023-05-21T03:31:36;11.60;;;10.13;;
1390;SDS011;690;51.454;7.194;2023-05-21T03:34:03;11.20;;;10.00;;
1390;SDS011;690;51.454;7.194;2023-05-21T03:36:33;12.40;;;11.00;;
1390;SDS011;690;51.454;7.194;2023-05-21T03:39:00;11.60;;;10.40;;
1390;SDS011;690;51.454;7.194;2023-05-21T03:41:28;11.23;;;10.07;;
1390;SDS011;690;51.454;7.194;2023-05-21T03:43:55;11.57;;;10.47;;
1390;SDS011;690;51.454;7.194;2023-05-21T03:46:22;11.37;;;10.27;;
1390;SDS011;690;51.454;7.194;2023-05-21T03:48:50;14.53;;;11.10;;
1390;SDS011;690;51.454;7.194;2023-05-21T03:51:17;12.30;;;10.87;;
1390;SDS011;690;51.454;7.194;2023-05-21T03:53:45;11.70;;;10.50;;
1390;SDS011;690;51.454;7.194;2023-05-21T03:56:12;12.70;;;10.30;;
1390;SDS011;690;51.454;7.194;2023-05-21T03:58:39;11.60;;;10.40;;
1390;SDS011;690;51.454;7.194;2023-05-21T04:01:06;11.30;;;10.10;;
1390;SDS011;690;51.454;7.194;2023-05-21T04:03:35;13.83;;;10.60;;
1390;SDS011;690;51.454;7.194;2023-05-21T04:06:03;15.57;;;10.67;;
1390;SDS011;690;51.454;7.194;2023-05-21T04:08:30;11.83;;;10.63;;
1390;SDS011;690;51.454;7.194;2023-05-21T04:10:58;11.70;;;10.50;;
1390;SDS011;690;51.454;7.194;2023-05-21T04:13:33;11.87;;;10.67;;
1390;SDS011;690;51.454;7.194;2023-05-21T04:16:00;11.73;;;9.73;;
1390;SDS011;690;51.454;7.194;2023-05-21T04:18:27;10.00;;;9.00;;
1390;SDS011;690;51.454;7.194;2023-05-21T04:20:54;11.30;;;9.70;;
1390;SDS011;690;51.454;7.194;2023-05-21T04:23:22;11.60;;;10.37;;
1390;SDS011;690;51.454;7.194;2023-05-21T04:25:49;10.93;;;9.70;;
1390;SDS011;690;51.454;7.194;2023-05-21T04:28:18;14.73;;;10.13;;
1390;SDS011;690;51.454;7.194;2023-05-21T04:30:45;12.70;;;10.20;;
1390;SDS011;690;51.454;7.194;2023-05-21T04:33:12;14.03;;;10.93;;
1390;SDS011;690;51.454;7.194;2023-05-21T04:35:42;10.03;;;8.97;;
1390;SDS011;690;51.454;7.194;2023-05-21T04:38:10;14.50;;;10.37;;
1390;SDS011;690;51.454;7.194;2023-05-21T04:40:38;11.27;;;10.17;;
1390;SDS011;690;51.454;7.194;2023-05-21T04:43:05;11.80;;;10.10;;
1390;SDS011;690;51.454;7.194;2023-05-21T04:45:33;13.47;;;10.70;;
1390;SDS011;690;51.454;7.194;2023-05-21T04:48:00;13.77;;;10.17;;
1390;SDS011;690;51.454;7.194;2023-05-21T04:50:28;11.23;;;10.07;;
1390;SDS011;690;51.454;7.194;2023-05-21T04:52:55;11.17;;;10.00;;
1390;SDS011;690;51.454;7.194;2023-05-21T04:55:23;11.27;;;9.97;;
1390;SDS011;690;51.454;7.194;2023-05-21T04:57:51;12.93;;;11.00;;
1390;SDS011;690;51.454;7.194;2023-05-21T05:00:18;14.97;;;9.97;;
1390;SDS011;690;51.454;7.194;2023-05-21T05:02:46;11.40;;;9.80;;
1390;SDS011;690;51.454;7.194;2023-05-21T05:05:13;10.40;;;9.20;;
1390;SDS011;690;51.454;7.194;2023-05-21T05:07:40;10.77;;;9.67;;
1390;SDS011;690;51.454;7.194;2023-05-21T05:10:07;11.97;;;10.83;;
1390;SDS011;690;51.454;7.194;2023-05-21T05:12:34;12.03;;;9.73;;
1390;SDS011;690;51.454;7.194;2023-05-21T05:15:07;11.67;;;10.43;;
1390;SDS011;690;51.454;7.194;2023-05-21T05:17:34;12.37;;;10.30;;
1390;SDS011;690;51.454;7.194;2023-05-21T05:20:02;10.53;;;9.50;;
1390;SDS011;690;51.454;7.194;2023-05-21T05:22:30;11.00;;;9.90;;
1390;SDS011;690;51.454;7.194;2023-05-21T05:24:57;11.03;;;9.93;;
1390;SDS011;690;51.454;7.194;2023-05-21T05:27:24;10.43;;;9.17;;
1390;SDS011;690;51.454;7.194;2023-05-21T05:29:51;10.33;;;9.33;;
1390;SDS011;690;51.454;7.194;2023-05-21T05:32:18;10.83;;;9.73;;
1390;SDS011;690;51.454;7.194;2023-05-21T05:34:44;10.77;;;9.77;;
1390;SDS011;690;51.454;7.194;2023-05-21T05:37:13;10.13;;;9.13;;
1390;SDS011;690;51.454;7.194;2023-05-21T05:39:40;13.70;;;10.07;;
1390;SDS011;690;51.454;7.194;2023-05-21T05:42:07;12.50;;;9.73;;
1390;SDS011;690;51.454;7.194;2023-05-21T05:44:34;11.70;;;9.83;;
1390;SDS011;690;51.454;7.194;2023-05-21T05:47:00;11.20;;;9.97;;
1390;SDS011;690;51.454;7.194;2023-05-21T05:49:27;11.33;;;9.23;;
1390;SDS011;690;51.454;7.194;2023-05-21T05:51:54;10.90;;;9.90;;
1390;SDS011;690;51.454;7.194;2023-05-21T05:54:22;13.17;;;9.23;;
1390;SDS011;690;51.454;7.194;2023-05-21T05:56:49;10.10;;;9.10;;
1390;SDS011;690;51.454;7.194;2023-05-21T05:59:16;13.53;;;10.63;;
1390;SDS011;690;51.454;7.194;2023-05-21T06:01:43;10.53;;;9.43;;
1390;SDS011;690;51.454;7.194;2023-05-21T06:04:10;10.77;;;9.60;;
1390;SDS011;690;51.454;7.194;2023-05-21T06:06:36;10.37;;;9.37;;
1390;SDS011;690;51.454;7.194;2023-05-21T06:09:03;11.13;;;9.50;;
1390;SDS011;690;51.454;7.194;2023-05-21T06:11:32;10.83;;;9.07;;
1390;SDS011;690;51.454;7.194;2023-05-21T06:13:59;10.27;;;9.30;;
1390;SDS011;690;51.454;7.194;2023-05-21T06:16:26;11.00;;;9.23;;
1390;SDS011;690;51.454;7.194;2023-05-21T06:18:55;11.67;;;9.23;;
1390;SDS011;690;51.454;7.194;2023-05-21T06:21:22;12.87;;;10.73;;
1390;SDS011;690;51.454;7.194;2023-05-21T06:23:49;12.47;;;10.50;;
1390;SDS011;690;51.454;7.194;2023-05-21T06:26:16;10.37;;;9.47;;
1390;SDS011;690;51.454;7.194;2023-05-21T06:28:45;11.13;;;10.03;;
1390;SDS011;690;51.454;7.194;2023-05-21T06:31:12;11.03;;;9.77;;
1390;SDS011;690;51.454;7.194;2023-05-21T06:33:38;11.10;;;10.00;;
1390;SDS011;690;51.454;7.194;2023-05-21T06:36:05;12.57;;;10.73;;
1390;SDS011;690;51.454;7.194;2023-05-21T06:38:33;12.57;;;11.27;;
1390;SDS011;690;51.454;7.194;2023-05-21T06:41:00;12.20;;;10.40;;
1390;SDS011;690;51.454;7.194;2023-05-21T06:43:27;12.80;;;11.30;;
1390;SDS011;690;51.454;7.194;2023-05-21T06:45:56;11.70;;;10.07;;
1390;SDS011;690;51.454;7.194;2023-05-21T06:48:24;12.47;;;11.20;;
1390;SDS011;690;51.454;7.194;2023-05-21T06:50:51;15.47;;;11.30;;
1390;SDS011;690;51.454;7.194;2023-05-21T06:53:18;12.90;;;11.53;;
1390;SDS011;690;51.454;7.194;2023-05-21T06:55:45;14.77;;;11.03;;
1390;SDS011;690;51.454;7.194;2023-05-21T06:58:13;12.73;;;10.97;;
1390;SDS011;690;51.454;7.194;2023-05-21T07:00:40;13.73;;;12.00;;
1390;SDS011;690;51.454;7.194;2023-05-21T07:03:08;12.60;;;11.07;;
1390;SDS011;690;51.454;7.194;2023-05-21T07:05:36;15.83;;;11.23;;
1390;SDS011;690;51.454;7.194;2023-05-21T07:08:03;13.57;;;11.60;;
1390;SDS011;690;51.454;7.194;2023-05-21T07:10:30;12.43;;;11.13;;
1390;SDS011;690;51.454;7.194;2023-05-21T07:12:57;12.03;;;10.87;;
1390;SDS011;690;51.454;7.194;2023-05-21T07:15:24;15.30;;;12.10;;
1390;SDS011;690;51.454;7.194;2023-05-21T07:17:51;14.67;;;12.17;;
1390;SDS011;690;51.454;7.194;2023-05-21T07:20:19;12.20;;;11.00;;
1390;SDS011;690;51.454;7.194;2023-05-21T07:22:46;14.03;;;12.53;;
1390;SDS011;690;51.454;7.194;2023-05-21T07:25:15;14.10;;;12.50;;
1390;SDS011;690;51.454;7.194;2023-05-21T07:27:44;13.93;;;11.87;;
1390;SDS011;690;51.454;7.194;2023-05-21T07:30:11;17.90;;;12.50;;
1390;SDS011;690;51.454;7.194;2023-05-21T07:32:40;13.43;;;12.03;;
1390;SDS011;690;51.454;7.194;2023-05-21T07:35:07;12.93;;;11.73;;
1390;SDS011;690;51.454;7.194;2023-05-21T07:37:36;13.33;;;12.10;;
1390;SDS011;690;51.454;7.194;2023-05-21T07:40:03;13.03;;;11.67;;
1390;SDS011;690;51.454;7.194;2023-05-21T07:42:31;14.03;;;12.63;;
1390;SDS011;690;51.454;7.194;2023-05-21T07:44:58;14.33;;;12.87;;
1390;SDS011;690;51.454;7.194;2023-05-21T07:47:26;15.23;;;13.57;;
1390;SDS011;690;51.454;7.194;2023-05-21T07:49:53;13.13;;;11.77;;
1390;SDS011;690;51.454;7.194;2023-05-21T07:52:20;15.17;;;12.97;;
1390;SDS011;690;51.454;7.194;2023-05-21T07:54:49;15.13;;;13.63;;
1390;SDS011;690;51.454;7.194;2023-05-21T07:57:16;14.60;;;12.63;;
1390;SDS011;690;51.454;7.194;2023-05-21T07:59:42;13.27;;;11.87;;
1390;SDS011;690;51.454;7.194;2023-05-21T08:02:09;12.87;;;11.57;;
1390;SDS011;690;51.454;7.194;2023-05-21T08:04:36;13.37;;;12.07;;
1390;SDS011;690;51.454;7.194;2023-05-21T08:07:03;13.90;;;12.60;;
1390;SDS011;690;51.454;7.194;2023-05-21T08:09:31;13.10;;;11.90;;
1390;SDS011;690;51.454;7.194;2023-05-21T08:11:59;13.63;;;12.30;;
1390;SDS011;690;51.454;7.194;2023-05-21T08:14:26;15.03;;;13.33;;
1390;SDS011;690;51.454;7.194;2023-05-21T08:16:52;14.40;;;12.30;;
1390;SDS011;690;51.454;7.194;2023-05-21T08:19:19;14.60;;;12.90;;
1390;SDS011;690;51.454;7.194;2023-05-21T08:21:46;13.10;;;11.83;;
1390;SDS011;690;51.454;7.194;2023-05-21T08:24:13;14.20;;;12.90;;
1390;SDS011;690;51.454;7.194;2023-05-21T08:26:40;15.17;;;13.53;;
1390;SDS011;690;51.454;7.194;2023-05-21T08:29:10;14.87;;;13.37;;
1390;SDS011;690;51.454;7.194;2023-05-21T08:31:36;14.27;;;12.87;;
1390;SDS011;690;51.454;7.194;2023-05-21T08:34:04;14.40;;;12.33;;
1390;SDS011;690;51.454;7.194;2023-05-21T08:36:31;14.37;;;12.77;;
1390;SDS011;690;51.454;7.194;2023-05-21T08:38:58;13.17;;;11.87;;
1390;SDS011;690;51.454;7.194;2023-05-21T08:41:25;14.73;;;13.23;;
1390;SDS011;690;51.454;7.194;2023-05-21T08:43:54;15.33;;;13.93;;
1390;SDS011;690;51.454;7.194;2023-05-21T08:46:23;17.70;;;14.23;;
1390;SDS011;690;51.454;7.194;2023-05-21T08:48:53;15.80;;;14.17;;
1390;SDS011;690;51.454;7.194;2023-05-21T08:51:21;15.53;;;13.80;;
1390;SDS011;690;51.454;7.194;2023-05-21T08:53:49;17.27;;;14.97;;
1390;SDS011;690;51.454;7.194;2023-05-21T08:56:16;15.23;;;13.80;;
1390;SDS011;690;51.454;7.194;2023-05-21T08:58:44;15.90;;;14.20;;
1390;SDS011;690;51.454;7.194;2023-05-21T09:01:11;17.17;;;15.57;;
1390;SDS011;690;51.454;7.194;2023-05-21T09:03:40;16.33;;;14.73;;
1390;SDS011;690;51.454;7.194;2023-05-21T09:06:09;16.27;;;14.50;;
1390;SDS011;690;51.454;7.194;2023-05-21T09:08:40;16.67;;;14.97;;
1390;SDS011;690;51.454;7.194;2023-05-21T09:11:10;17.27;;;15.40;;
1390;SDS011;690;51.454;7.194;2023-05-21T09:13:37;16.03;;;14.53;;
1390;SDS011;690;51.454;7.194;2023-05-21T09:16:05;18.23;;;15.03;;
1390;SDS011;690;51.454;7.194;2023-05-21T09:18:33;16.20;;;14.50;;
1390;SDS011;690;51.454;7.194;2023-05-21T09:21:01;18.60;;;16.70;;
1390;SDS011;690;51.454;7.194;2023-05-21T09:23:51;20.50;;;18.23;;
1390;SDS011;690;51.454;7.194;2023-05-21T09:26:20;17.63;;;15.57;;
1390;SDS011;690;51.454;7.194;2023-05-21T09:28:47;16.23;;;14.63;;
1390;SDS011;690;51.454;7.194;2023-05-21T09:31:14;17.37;;;15.57;;
1390;SDS011;690;51.454;7.194;2023-05-21T09:33:44;16.83;;;15.03;;
1390;SDS011;690;51.454;7.194;2023-05-21T09:36:14;17.43;;;15.73;;
1390;SDS011;690;51.454;7.194;2023-05-21T09:38:44;15.67;;;14.20;;
1390;SDS011;690;51.454;7.194;2023-05-21T09:41:11;16.50;;;14.90;;
1390;SDS011;690;51.454;7.194;2023-05-21T09:43:40;16.87;;;15.17;;
1390;SDS011;690;51.454;7.194;2023-05-21T09:46:08;17.20;;;15.47;;
1390;SDS011;690;51.454;7.194;2023-05-21T09:48:35;18.47;;;16.60;;
1390;SDS011;690;51.454;7.194;2023-05-21T09:51:08;18.40;;;16.50;;
1390;SDS011;690;51.454;7.194;2023-05-21T09:53:42;17.30;;;15.60;;
1390;SDS011;690;51.454;7.194;2023-05-21T09:56:10;17.30;;;15.40;;
1390;SDS011;690;51.454;7.194;2023-05-21T09:58:37;16.80;;;15.10;;
1390;SDS011;690;51.454;7.194;2023-05-21T10:01:05;16.80;;;15.00;;
1390;SDS011;690;51.454;7.194;2023-05-21T10:03:32;19.37;;;15.67;;
1390;SDS011;690;51.454;7.194;2023-05-21T10:06:04;17.43;;;15.60;;
1390;SDS011;690;51.454;7.194;2023-05-21T10:08:34;17.20;;;15.37;;
1390;SDS011;690;51.454;7.194;2023-05-21T10:11:04;16.50;;;14.77;;
1390;SDS011;690;51.454;7.194;2023-05-21T10:13:31;17.33;;;15.50;;
1390;SDS011;690;51.454;7.194;2023-05-21T10:16:01;19.00;;;16.97;;
1390;SDS011;690;51.454;7.194;2023-05-21T10:18:29;18.10;;;16.30;;
1390;SDS011;690;51.454;7.194;2023-05-21T10:20:57;19.20;;;16.37;;
1390;SDS011;690;51.454;7.194;2023-05-21T10:23:25;17.57;;;15.77;;
1390;SDS011;690;51.454;7.194;2023-05-21T10:25:53;18.80;;;16.90;;
1390;SDS011;690;51.454;7.194;2023-05-21T10:28:23;18.00;;;16.20;;
1390;SDS011;690;51.454;7.194;2023-05-21T10:30:50;17.67;;;15.97;;
1390;SDS011;690;51.454;7.194;2023-05-21T10:33:18;17.10;;;15.50;;
1390;SDS011;690;51.454;7.194;2023-05-21T10:35:48;18.90;;;15.80;;
1390;SDS011;690;51.454;7.194;2023-05-21T10:38:16;20.00;;;18.00;;
1390;SDS011;690;51.454;7.194;2023-05-21T10:40:45;19.17;;;17.17;;
1390;SDS011;690;51.454;7.194;2023-05-21T10:43:27;18.30;;;16.40;;
1390;SDS011;690;51.454;7.194;2023-05-21T10:46:10;19.20;;;17.20;;
1390;SDS011;690;51.454;7.194;2023-05-21T10:49:03;19.37;;;17.47;;
1390;SDS011;690;51.454;7.194;2023-05-21T10:51:52;20.77;;;17.57;;
1390;SDS011;690;51.454;7.194;2023-05-21T10:54:40;18.30;;;16.40;;
1390;SDS011;690;51.454;7.194;2023-05-21T10:57:21;17.80;;;15.93;;
1390;SDS011;690;51.454;7.194;2023-05-21T11:00:06;19.67;;;17.73;;
1390;SDS011;690;51.454;7.194;2023-05-21T11:02:36;18.13;;;16.10;;
1390;SDS011;690;51.454;7.194;2023-05-21T11:05:03;21.07;;;18.90;;
1390;SDS011;690;51.454;7.194;2023-05-21T11:07:49;20.00;;;18.00;;
1390;SDS011;690;51.454;7.194;2023-05-21T11:10:29;21.10;;;18.77;;
1390;SDS011;690;51.454;7.194;2023-05-21T11:13:07;20.73;;;18.53;;
1390;SDS011;690;51.454;7.194;2023-05-21T11:21:30;18.73;;;16.30;;
1390;SDS011;690;51.454;7.194;2023-05-21T11:24:00;19.13;;;17.13;;
1390;SDS011;690;51.454;7.194;2023-05-21T11:29:35;22.40;;;20.20;;
1390;SDS011;690;51.454;7.194;2023-05-21T11:32:07;21.77;;;19.50;;
1390;SDS011;690;51.454;7.194;2023-05-21T11:34:38;20.70;;;18.07;;
1390;SDS011;690;51.454;7.194;2023-05-21T11:37:21;19.53;;;17.63;;
1390;SDS011;690;51.454;7.194;2023-05-21T11:39:51;21.80;;;19.60;;
1390;SDS011;690;51.454;7.194;2023-05-21T11:42:28;20.20;;;18.10;;
1390;SDS011;690;51.454;7.194;2023-05-21T11:44:56;20.07;;;17.83;;
1390;SDS011;690;51.454;7.194;2023-05-21T11:47:25;21.27;;;19.10;;
1390;SDS011;690;51.454;7.194;2023-05-21T11:49:53;21.37;;;19.33;;
1390;SDS011;690;51.454;7.194;2023-05-21T11:52:21;20.37;;;18.43;;
1390;SDS011;690;51.454;7.194;2023-05-21T11:54:49;21.97;;;19.60;;
1390;SDS011;690;51.454;7.194;2023-05-21T11:57:19;23.37;;;20.73;;
1390;SDS011;690;51.454;7.194;2023-05-21T11:59:48;21.67;;;19.57;;
1390;SDS011;690;51.454;7.194;2023-05-21T12:02:19;23.40;;;20.97;;
1390;SDS011;690;51.454;7.194;2023-05-21T12:04:49;21.77;;;19.40;;
1390;SDS011;690;51.454;7.194;2023-05-21T12:07:17;21.00;;;18.90;;
1390;SDS011;690;51.454;7.194;2023-05-21T12:09:45;22.10;;;20.03;;
1390;SDS011;690;51.454;7.194;2023-05-21T12:12:13;27.10;;;20.80;;
1390;SDS011;690;51.454;7.194;2023-05-21T12:14:42;21.80;;;19.50;;
1390;SDS011;690;51.454;7.194;2023-05-21T12:17:10;20.70;;;18.60;;
1390;SDS011;690;51.454;7.194;2023-05-21T12:19:38;20.37;;;18.47;;
1390;SDS011;690;51.454;7.194;2023-05-21T12:22:07;20.70;;;18.63;;
1390;SDS011;690;51.454;7.194;2023-05-21T12:24:36;20.93;;;18.77;;
1390;SDS011;690;51.454;7.194;2023-05-21T12:27:04;20.47;;;18.57;;
1390;SDS011;690;51.454;7.194;2023-05-21T12:29:34;20.90;;;18.70;;
1390;SDS011;690;51.454;7.194;2023-05-21T12:32:03;19.43;;;17.63;;
1390;SDS011;690;51.454;7.194;2023-05-21T12:34:36;21.57;;;19.57;;
1390;SDS011;690;51.454;7.194;2023-05-21T12:37:10;20.70;;;18.60;;
1390;SDS011;690;51.454;7.194;2023-05-21T12:39:41;22.47;;;20.37;;
1390;SDS011;690;51.454;7.194;2023-05-21T12:42:09;19.80;;;17.87;;
1390;SDS011;690;51.454;7.194;2023-05-21T12:44:37;22.00;;;19.83;;
1390;SDS011;690;51.454;7.194;2023-05-21T12:47:06;21.17;;;19.10;;
1390;SDS011;690;51.454;7.194;2023-05-21T12:49:33;22.73;;;20.57;;
1390;SDS011;690;51.454;7.194;2023-05-21T12:52:02;22.73;;;19.33;;
1390;SDS011;690;51.454;7.194;2023-05-21T12:54:32;20.60;;;18.47;;
1390;SDS011;690;51.454;7.194;2023-05-21T12:57:09;20.70;;;18.63;;
1390;SDS011;690;51.454;7.194;2023-05-21T12:59:45;22.40;;;20.13;;
1390;SDS011;690;51.454;7.194;2023-05-21T13:02:13;20.60;;;18.60;;
1390;SDS011;690;51.454;7.194;2023-05-21T13:04:54;22.13;;;19.90;;
1390;SDS011;690;51.454;7.194;2023-05-21T13:07:22;20.17;;;18.27;;
1390;SDS011;690;51.454;7.194;2023-05-21T13:09:51;20.70;;;18.80;;
1390;SDS011;690;51.454;7.194;2023-05-21T13:12:19;19.93;;;17.93;;
1390;SDS011;690;51.454;7.194;2023-05-21T13:14:47;17.97;;;16.27;;
1390;SDS011;690;51.454;7.194;2023-05-21T13:17:14;19.27;;;17.47;;
1390;SDS011;690;51.454;7.194;2023-05-21T13:22:32;19.47;;;17.50;;
1390;SDS011;690;51.454;7.194;2023-05-21T13:25:01;19.33;;;17.33;;
1390;SDS011;690;51.454;7.194;2023-05-21T13:27:29;18.83;;;16.93;;
1390;SDS011;690;51.454;7.194;2023-05-21T13:29:55;18.17;;;16.37;;
1390;SDS011;690;51.454;7.194;2023-05-21T13:32:23;20.77;;;18.70;;
1390;SDS011;690;51.454;7.194;2023-05-21T13:34:50;20.13;;;18.10;;
1390;SDS011;690;51.454;7.194;2023-05-21T13:37:17;19.10;;;17.30;;
1390;SDS011;690;51.454;7.194;2023-05-21T13:39:45;21.40;;;19.37;;
1390;SDS011;690;51.454;7.194;2023-05-21T13:42:14;20.37;;;18.37;;
1390;SDS011;690;51.454;7.194;2023-05-21T13:44:41;20.03;;;18.00;;
1390;SDS011;690;51.454;7.194;2023-05-21T13:47:08;21.43;;;18.90;;
1390;SDS011;690;51.454;7.194;2023-05-21T13:49:36;20.10;;;18.17;;
1390;SDS011;690;51.454;7.194;2023-05-21T13:52:04;20.30;;;18.50;;
1390;SDS011;690;51.454;7.194;2023-05-21T13:54:32;19.57;;;17.67;;
1390;SDS011;690;51.454;7.194;2023-05-21T13:56:59;19.57;;;17.47;;
1390;SDS011;690;51.454;7.194;2023-05-21T13:59:27;18.60;;;16.90;;
1390;SDS011;690;51.454;7.194;2023-05-21T14:01:54;18.43;;;16.60;;
1390;SDS011;690;51.454;7.194;2023-05-21T14:04:22;19.47;;;17.47;;
1390;SDS011;690;51.454;7.194;2023-05-21T14:06:49;20.47;;;17.00;;
1390;SDS011;690;51.454;7.194;2023-05-21T14:09:16;17.50;;;15.80;;
1390;SDS011;690;51.454;7.194;2023-05-21T14:11:43;16.87;;;15.27;;
1390;SDS011;690;51.454;7.194;2023-05-21T14:14:10;17.13;;;15.60;;
1390;SDS011;690;51.454;7.194;2023-05-21T14:16:44;18.63;;;16.97;;
1390;SDS011;690;51.454;7.194;2023-05-21T14:19:12;24.43;;;17.90;;
1390;SDS011;690;51.454;7.194;2023-05-21T14:21:39;20.03;;;18.23;;
1390;SDS011;690;51.454;7.194;2023-05-21T14:24:07;20.40;;;18.40;;
1390;SDS011;690;51.454;7.194;2023-05-21T14:26:34;18.90;;;17.20;;
1390;SDS011;690;51.454;7.194;2023-05-21T14:29:02;20.10;;;18.30;;
1390;SDS011;690;51.454;7.194;2023-05-21T14:31:35;19.77;;;17.70;;
1390;SDS011;690;51.454;7.194;2023-05-21T14:34:04;20.87;;;17.03;;
1390;SDS011;690;51.454;7.194;2023-05-21T14:36:32;18.33;;;16.60;;
1390;SDS011;690;51.454;7.194;2023-05-21T14:39:00;17.60;;;16.00;;
1390;SDS011;690;51.454;7.194;2023-05-21T14:41:27;19.57;;;17.70;;
1390;SDS011;690;51.454;7.194;2023-05-21T14:43:54;19.27;;;17.40;;
1390;SDS011;690;51.454;7.194;2023-05-21T14:46:21;18.60;;;17.00;;
1390;SDS011;690;51.454;7.194;2023-05-21T14:48:49;22.40;;;20.30;;
1390;SDS011;690;51.454;7.194;2023-05-21T14:51:18;21.57;;;19.47;;
1390;SDS011;690;51.454;7.194;2023-05-21T14:53:45;20.03;;;17.87;;
1390;SDS011;690;51.454;7.194;2023-05-21T14:56:12;20.40;;;17.13;;
1390;SDS011;690;51.454;7.194;2023-05-21T14:58:38;18.43;;;16.67;;
1390;SDS011;690;51.454;7.194;2023-05-21T15:01:05;18.53;;;16.80;;
1390;SDS011;690;51.454;7.194;2023-05-21T15:03:32;16.80;;;15.40;;
1390;SDS011;690;51.454;7.194;2023-05-21T15:06:00;18.60;;;16.90;;
1390;SDS011;690;51.454;7.194;2023-05-21T15:08:28;17.77;;;16.00;;
1390;SDS011;690;51.454;7.194;2023-05-21T15:10:55;18.80;;;17.20;;
1390;SDS011;690;51.454;7.194;2023-05-21T15:13:27;18.27;;;16.53;;
1390;SDS011;690;51.454;7.194;2023-05-21T15:15:54;19.13;;;17.40;;
1390;SDS011;690;51.454;7.194;2023-05-21T15:18:23;18.80;;;17.10;;
1390;SDS011;690;51.454;7.194;2023-05-21T15:20:50;18.50;;;16.80;;
1390;SDS011;690;51.454;7.194;2023-05-21T15:23:17;18.33;;;16.43;;